Terminal Aerodrome Forecast
Issued by NWS Brownsville, TX

Home | Current Version | Previous Version | Text Only | Print | Product List | Glossary On
Versions: 1 2 3 4 5 6 7 8 9 10 11 12 13 14 15 16 17 18 19
592
FTUS44 KBRO 241720
TAFHRL
TAF
KHRL 241720Z 2418/2518 16015G21KT P6SM SKC
     FM250100 14010KT P6SM SKC
     FM250500 13004KT P6SM FEW020
     FM251200 14006KT P6SM BKN250=

USA.gov is the U.S. government's official web portal to all federal, state and local government web resources and services.